Zim Luanda — 9HA2029 — position and weather

sailwx.info

Track history (hours):
 
Tides and Currents Weather Stations Pressure Air Temp Water Temp Dewpoint Dewpoint Depression Visibility Wind Speed Wind Dir Waves Ship Positions

Zim Luanda

Last reported at 2015-Aug-03 01:33 UTC. Time now 2015-Aug-03 19:08 UTC.
Position N 35°37' E 025°15'.

Length 260 m; draft 11.2 m.

Type: Ship (hazmat cat A). MMSI: 249830000.

Date/timePositionNaut miles runAvg speedWind from/ knotsBaromVisibWave heightAir tempDewpointWater temp
2015-Aug-03 01:33N 35°37' E 025°15'1616.3
2015-Aug-03 00:33N 35°41' E 024°55'38415.9
2015-Aug-02 00:22N 37°30' E 017°17'1315.9
2015-Aug-01 23:33N 37°34' E 017°01'3215.9
2015-Aug-01 21:32N 37°43' E 016°22'1515.7
2015-Aug-01 20:33N 37°47' E 016°04'1615.8
2015-Aug-01 19:33N 37°52' E 015°44'1313.0
2015-Aug-01 18:33N 38°02' E 015°34'1413.8
2015-Aug-01 17:33N 38°15' E 015°40'1414.1
2015-Aug-01 16:34N 38°27' E 015°29'1615.5
2015-Aug-01 15:33N 38°38' E 015°16'1515.4
2015-Aug-01 14:34N 38°49' E 015°02'1716.4
2015-Aug-01 13:33N 39°01' E 014°47'6516.4
2015-Aug-01 09:34N 39°48' E 013°48'1815.8
2015-Aug-01 08:24N 40°01' E 013°32'1315.5
2015-Aug-01 07:33N 40°10' E 013°20'1615.7
2015-Aug-01 06:34N 40°22' E 013°05'1615.9
2015-Aug-01 05:34N 40°33' E 012°51'1615.9
2015-Aug-01 04:34N 40°45' E 012°36'2116.0
2015-Aug-01 03:14N 40°60' E 012°17'1116.1
2015-Aug-01 02:32N 41°08' E 012°06'1515.9
2015-Aug-01 01:33N 41°19' E 011°52'6515.7
2015-Jul-31 21:26N 42°06' E 010°51'1415.6
2015-Jul-31 20:32N 42°15' E 010°38'1916.2
2015-Jul-31 19:22N 42°29' E 010°20'1315.5
2015-Jul-31 18:30N 42°39' E 010°08'1414.4
2015-Jul-31 17:34N 42°52' E 010°02'1616.2
2015-Jul-31 16:33N 43°08' E 010°06'1616.2
2015-Jul-31 15:34N 43°24' E 010°11'1110.8
2015-Jul-31 14:33N 43°33' E 010°18'1 1.2
2015-Jul-31 13:33N 43°34' E 010°18'0 0.0
2015-Jul-31 12:33N 43°34' E 010°18'0 0.0
2015-Jul-31 11:33N 43°34' E 010°18'0 0.0
2015-Jul-31 10:33N 43°34' E 010°18'0 0.0
2015-Jul-31 09:33N 43°34' E 010°18'0 0.0
2015-Jul-31 08:33N 43°34' E 010°18'0 0.0
2015-Jul-31 07:33N 43°34' E 010°18'0 0.0
2015-Jul-31 06:33N 43°34' E 010°18'0 0.0
2015-Jul-31 05:33N 43°34' E 010°18'0 0.0
2015-Jul-31 04:33N 43°34' E 010°18'0 0.0
2015-Jul-31 03:33N 43°34' E 010°18'0 0.0
2015-Jul-31 02:33N 43°34' E 010°18'0 0.0
2015-Jul-31 01:33N 43°34' E 010°18'0 0.0
2015-Jul-31 00:33N 43°34' E 010°18'0 0.0
2015-Jul-30 23:33N 43°34' E 010°18'0 0.0
2015-Jul-30 22:33N 43°34' E 010°18'0 0.0
2015-Jul-30 21:33N 43°34' E 010°18'0 0.0
2015-Jul-30 20:33N 43°34' E 010°18'0 0.0
2015-Jul-30 19:33N 43°34' E 010°18'0 0.0
2015-Jul-30 18:33N 43°34' E 010°18'0 0.0
2015-Jul-30 17:33N 43°34' E 010°18'0 0.0
2015-Jul-30 16:33N 43°34' E 010°18'0 0.0
2015-Jul-30 15:33N 43°34' E 010°18'0 0.0
2015-Jul-30 14:33N 43°34' E 010°18'0 0.0
2015-Jul-30 13:33N 43°34' E 010°18'0 0.0
2015-Jul-30 12:30N 43°34' E 010°18'0 0.0
2015-Jul-30 11:33N 43°34' E 010°18'0 0.2
2015-Jul-30 10:33N 43°34' E 010°18'6 5.8
2015-Jul-30 09:33N 43°30' E 010°14'7 7.1
2015-Jul-30 08:33N 43°25' E 010°06'1111.4
2015-Jul-30 07:33N 43°18' E 009°54'1212.3
2015-Jul-30 06:33N 43°15' E 009°37'1313.1
2015-Jul-30 05:33N 43°11' E 009°20'1313.3
2015-Jul-30 04:33N 43°06' E 009°03'1413.5
2015-Jul-30 03:33N 43°01' E 008°46'1413.8
2015-Jul-30 02:33N 42°57' E 008°28'1313.3
2015-Jul-30 01:33N 42°51' E 008°12'1313.3
2015-Jul-30 00:33N 42°47' E 007°55'1313.3
2015-Jul-29 23:33N 42°42' E 007°38'1313.2
2015-Jul-29 22:33N 42°37' E 007°21'1313.2
2015-Jul-29 21:33N 42°32' E 007°04'1313.2
2015-Jul-29 20:33N 42°27' E 006°48'5513.3
2015-Jul-29 16:26N 42°08' E 005°39'276 7.2
2015-Jul-28 02:12N 39°51' E 000°21'711.5
2015-Jul-28 01:33N 39°45' E 000°16'2211.1
2015-Jul-27 23:33N 39°29' W 000°04'1111.0
2015-Jul-27 22:33N 39°26' W 000°18'2 1.5
2015-Jul-27 21:32N 39°27' W 000°19'0 0.0
2015-Jul-27 20:32N 39°27' W 000°19'0 0.0
2015-Jul-27 19:32N 39°27' W 000°19'0 0.0
2015-Jul-27 18:32N 39°27' W 000°19'0 0.0
2015-Jul-27 17:32N 39°27' W 000°19'0 0.0
2015-Jul-27 16:32N 39°27' W 000°19'0 0.0
2015-Jul-27 15:32N 39°27' W 000°19'0 0.0
2015-Jul-27 14:32N 39°27' W 000°19'0 0.0
2015-Jul-27 13:32N 39°27' W 000°19'0 0.0
2015-Jul-27 12:32N 39°27' W 000°19'0 0.0
2015-Jul-27 11:32N 39°27' W 000°19'0 0.0
2015-Jul-27 10:32N 39°27' W 000°19'0 0.0
2015-Jul-27 09:32N 39°27' W 000°19'0 0.0
2015-Jul-27 08:32N 39°27' W 000°19'0 0.0
2015-Jul-27 07:32N 39°27' W 000°19'0 0.0
2015-Jul-27 06:32N 39°27' W 000°19'0 0.0
2015-Jul-27 05:32N 39°27' W 000°19'0 0.0
2015-Jul-27 04:34N 39°27' W 000°19'6 5.5
2015-Jul-27 03:34N 39°23' W 000°13'5212.4
2015-Jul-26 23:23N 38°42' E 000°27'1315.2
2015-Jul-26 22:33N 38°31' E 000°19'1515.1
2015-Jul-26 21:33N 38°18' E 000°09'1514.7
2015-Jul-26 20:33N 38°06' W 000°01'1514.9
2015-Jul-26 19:33N 37°54' W 000°12'1515.2
2015-Jul-26 18:33N 37°41' W 000°23'1515.0
2015-Jul-26 17:33N 37°30' W 000°35'1514.6
2015-Jul-26 16:33N 37°20' W 000°49'1615.1
2015-Jul-26 15:30N 37°09' W 001°04'1414.6
2015-Jul-26 14:34N 37°01' W 001°17'30614.5
2015-Jul-25 17:26N 36°06' W 007°32'1315.4
2015-Jul-25 16:33N 36°09' W 007°48'1515.4
2015-Jul-25 15:33N 36°12' W 008°07'1515.2
2015-Jul-25 14:33N 36°15' W 008°26'1815.1
2015-Jul-25 13:23N 36°18' W 008°47'1414.6
2015-Jul-25 12:27N 36°21' W 009°04'1314.6
2015-Jul-25 11:33N 36°24' W 009°19'1815.0
2015-Jul-25 10:22N 36°27' W 009°41'1415.1
2015-Jul-25 09:28N 36°30' W 009°58'1415.2
2015-Jul-25 08:33N 36°31' W 010°15'1515.0
2015-Jul-25 07:33N 36°33' W 010°33'1515.1
2015-Jul-25 06:33N 36°35' W 010°52'7814.9
2015-Jul-25 01:19N 36°45' W 012°28'1214.6
2015-Jul-25 00:30N 36°47' W 012°43'  
Track history (hours):
 
Tides and Currents Weather Stations Pressure Air Temp Water Temp Dewpoint Dewpoint Depression Visibility Wind Speed Wind Dir Waves Ship Positions

Zim Luanda

Last reported at 2015-Aug-03 01:33 UTC. Time now 2015-Aug-03 19:08 UTC.
Position N 35°37' E 025°15'.

Length 260 m; draft 11.2 m.

Type: Ship (hazmat cat A). MMSI: 249830000.

Date/timePositionNaut miles runAvg speedWind from/ knotsBaromVisibWave heightAir tempDewpointWater temp
2015-Aug-03 01:33N 35°37' E 025°15'1616.3
2015-Aug-03 00:33N 35°41' E 024°55'38415.9
2015-Aug-02 00:22N 37°30' E 017°17'1315.9
2015-Aug-01 23:33N 37°34' E 017°01'3215.9
2015-Aug-01 21:32N 37°43' E 016°22'1515.7
2015-Aug-01 20:33N 37°47' E 016°04'1615.8
2015-Aug-01 19:33N 37°52' E 015°44'1313.0
2015-Aug-01 18:33N 38°02' E 015°34'1413.8
2015-Aug-01 17:33N 38°15' E 015°40'1414.1
2015-Aug-01 16:34N 38°27' E 015°29'1615.5
2015-Aug-01 15:33N 38°38' E 015°16'1515.4
2015-Aug-01 14:34N 38°49' E 015°02'1716.4
2015-Aug-01 13:33N 39°01' E 014°47'6516.4
2015-Aug-01 09:34N 39°48' E 013°48'1815.8
2015-Aug-01 08:24N 40°01' E 013°32'1315.5
2015-Aug-01 07:33N 40°10' E 013°20'1615.7
2015-Aug-01 06:34N 40°22' E 013°05'1615.9
2015-Aug-01 05:34N 40°33' E 012°51'1615.9
2015-Aug-01 04:34N 40°45' E 012°36'2116.0
2015-Aug-01 03:14N 40°60' E 012°17'1116.1
2015-Aug-01 02:32N 41°08' E 012°06'1515.9
2015-Aug-01 01:33N 41°19' E 011°52'6515.7
2015-Jul-31 21:26N 42°06' E 010°51'1415.6
2015-Jul-31 20:32N 42°15' E 010°38'1916.2
2015-Jul-31 19:22N 42°29' E 010°20'1315.5
2015-Jul-31 18:30N 42°39' E 010°08'1414.4
2015-Jul-31 17:34N 42°52' E 010°02'1616.2
2015-Jul-31 16:33N 43°08' E 010°06'1616.2
2015-Jul-31 15:34N 43°24' E 010°11'1110.8
2015-Jul-31 14:33N 43°33' E 010°18'1 1.2
2015-Jul-31 13:33N 43°34' E 010°18'0 0.0
2015-Jul-31 12:33N 43°34' E 010°18'0 0.0
2015-Jul-31 11:33N 43°34' E 010°18'0 0.0
2015-Jul-31 10:33N 43°34' E 010°18'0 0.0
2015-Jul-31 09:33N 43°34' E 010°18'0 0.0
2015-Jul-31 08:33N 43°34' E 010°18'0 0.0
2015-Jul-31 07:33N 43°34' E 010°18'0 0.0
2015-Jul-31 06:33N 43°34' E 010°18'0 0.0
2015-Jul-31 05:33N 43°34' E 010°18'0 0.0
2015-Jul-31 04:33N 43°34' E 010°18'0 0.0
2015-Jul-31 03:33N 43°34' E 010°18'0 0.0
2015-Jul-31 02:33N 43°34' E 010°18'0 0.0
2015-Jul-31 01:33N 43°34' E 010°18'0 0.0
2015-Jul-31 00:33N 43°34' E 010°18'0 0.0
2015-Jul-30 23:33N 43°34' E 010°18'0 0.0
2015-Jul-30 22:33N 43°34' E 010°18'0 0.0
2015-Jul-30 21:33N 43°34' E 010°18'0 0.0
2015-Jul-30 20:33N 43°34' E 010°18'0 0.0
2015-Jul-30 19:33N 43°34' E 010°18'0 0.0
2015-Jul-30 18:33N 43°34' E 010°18'0 0.0
2015-Jul-30 17:33N 43°34' E 010°18'0 0.0
2015-Jul-30 16:33N 43°34' E 010°18'0 0.0
2015-Jul-30 15:33N 43°34' E 010°18'0 0.0
2015-Jul-30 14:33N 43°34' E 010°18'0 0.0
2015-Jul-30 13:33N 43°34' E 010°18'0 0.0
2015-Jul-30 12:30N 43°34' E 010°18'0 0.0
2015-Jul-30 11:33N 43°34' E 010°18'0 0.2
2015-Jul-30 10:33N 43°34' E 010°18'6 5.8
2015-Jul-30 09:33N 43°30' E 010°14'7 7.1
2015-Jul-30 08:33N 43°25' E 010°06'1111.4
2015-Jul-30 07:33N 43°18' E 009°54'1212.3
2015-Jul-30 06:33N 43°15' E 009°37'1313.1
2015-Jul-30 05:33N 43°11' E 009°20'1313.3
2015-Jul-30 04:33N 43°06' E 009°03'1413.5
2015-Jul-30 03:33N 43°01' E 008°46'1413.8
2015-Jul-30 02:33N 42°57' E 008°28'1313.3
2015-Jul-30 01:33N 42°51' E 008°12'1313.3
2015-Jul-30 00:33N 42°47' E 007°55'1313.3
2015-Jul-29 23:33N 42°42' E 007°38'1313.2
2015-Jul-29 22:33N 42°37' E 007°21'1313.2
2015-Jul-29 21:33N 42°32' E 007°04'1313.2
2015-Jul-29 20:33N 42°27' E 006°48'5513.3
2015-Jul-29 16:26N 42°08' E 005°39'276 7.2
2015-Jul-28 02:12N 39°51' E 000°21'711.5
2015-Jul-28 01:33N 39°45' E 000°16'2211.1
2015-Jul-27 23:33N 39°29' W 000°04'1111.0
2015-Jul-27 22:33N 39°26' W 000°18'2 1.5
2015-Jul-27 21:32N 39°27' W 000°19'0 0.0
2015-Jul-27 20:32N 39°27' W 000°19'0 0.0
2015-Jul-27 19:32N 39°27' W 000°19'0 0.0
2015-Jul-27 18:32N 39°27' W 000°19'0 0.0
2015-Jul-27 17:32N 39°27' W 000°19'0 0.0
2015-Jul-27 16:32N 39°27' W 000°19'0 0.0
2015-Jul-27 15:32N 39°27' W 000°19'0 0.0
2015-Jul-27 14:32N 39°27' W 000°19'0 0.0
2015-Jul-27 13:32N 39°27' W 000°19'0 0.0
2015-Jul-27 12:32N 39°27' W 000°19'0 0.0
2015-Jul-27 11:32N 39°27' W 000°19'0 0.0
2015-Jul-27 10:32N 39°27' W 000°19'0 0.0
2015-Jul-27 09:32N 39°27' W 000°19'0 0.0
2015-Jul-27 08:32N 39°27' W 000°19'0 0.0
2015-Jul-27 07:32N 39°27' W 000°19'0 0.0
2015-Jul-27 06:32N 39°27' W 000°19'0 0.0
2015-Jul-27 05:32N 39°27' W 000°19'0 0.0
2015-Jul-27 04:34N 39°27' W 000°19'6 5.5
2015-Jul-27 03:34N 39°23' W 000°13'5212.4
2015-Jul-26 23:23N 38°42' E 000°27'1315.2
2015-Jul-26 22:33N 38°31' E 000°19'1515.1
2015-Jul-26 21:33N 38°18' E 000°09'1514.7
2015-Jul-26 20:33N 38°06' W 000°01'1514.9
2015-Jul-26 19:33N 37°54' W 000°12'1515.2
2015-Jul-26 18:33N 37°41' W 000°23'1515.0
2015-Jul-26 17:33N 37°30' W 000°35'1514.6
2015-Jul-26 16:33N 37°20' W 000°49'1615.1
2015-Jul-26 15:30N 37°09' W 001°04'1414.6
2015-Jul-26 14:34N 37°01' W 001°17'30614.5
2015-Jul-25 17:26N 36°06' W 007°32'1315.4
2015-Jul-25 16:33N 36°09' W 007°48'1515.4
2015-Jul-25 15:33N 36°12' W 008°07'1515.2
2015-Jul-25 14:33N 36°15' W 008°26'1815.1
2015-Jul-25 13:23N 36°18' W 008°47'1414.6
2015-Jul-25 12:27N 36°21' W 009°04'1314.6
2015-Jul-25 11:33N 36°24' W 009°19'1815.0
2015-Jul-25 10:22N 36°27' W 009°41'1415.1
2015-Jul-25 09:28N 36°30' W 009°58'1415.2
2015-Jul-25 08:33N 36°31' W 010°15'1515.0
2015-Jul-25 07:33N 36°33' W 010°33'1515.1
2015-Jul-25 06:33N 36°35' W 010°52'7814.9
2015-Jul-25 01:19N 36°45' W 012°28'1214.6
2015-Jul-25 00:30N 36°47' W 012°43'  

Dump ship's entire track history